sensor_id;sensor_type;location;lat;lon;timestamp;pressure;altitude;pressure_sealevel;temperature;humidity
20930;BME280;21895;47.072;15.132;2023-01-28T00:00:53;96739.00;;;1.57;70.66
20930;BME280;21895;47.072;15.132;2023-01-28T00:03:20;96740.00;;;1.62;70.78
20930;BME280;21895;47.072;15.132;2023-01-28T00:05:46;96740.00;;;1.52;70.71
20930;BME280;21895;47.072;15.132;2023-01-28T00:08:13;96738.00;;;1.49;70.77
20930;BME280;21895;47.072;15.132;2023-01-28T00:10:41;96728.00;;;1.44;70.85
20930;BME280;21895;47.072;15.132;2023-01-28T00:13:12;96738.00;;;1.34;71.04
20930;BME280;21895;47.072;15.132;2023-01-28T00:15:41;96739.00;;;1.30;71.40
20930;BME280;21895;47.072;15.132;2023-01-28T00:18:08;96735.00;;;1.32;72.06
20930;BME280;21895;47.072;15.132;2023-01-28T00:20:35;96737.00;;;1.44;72.10
20930;BME280;21895;47.072;15.132;2023-01-28T00:23:01;96739.00;;;1.41;71.67
20930;BME280;21895;47.072;15.132;2023-01-28T00:25:28;96740.00;;;1.43;70.75
20930;BME280;21895;47.072;15.132;2023-01-28T00:27:55;96739.00;;;1.36;70.94
20930;BME280;21895;47.072;15.132;2023-01-28T00:30:22;96748.00;;;1.25;71.64
20930;BME280;21895;47.072;15.132;2023-01-28T00:32:48;96746.00;;;1.21;72.11
20930;BME280;21895;47.072;15.132;2023-01-28T00:35:15;96747.00;;;1.22;72.04
20930;BME280;21895;47.072;15.132;2023-01-28T00:37:45;96748.00;;;1.34;72.27
20930;BME280;21895;47.072;15.132;2023-01-28T00:40:12;96752.00;;;1.39;72.28
20930;BME280;21895;47.072;15.132;2023-01-28T00:42:39;96756.00;;;1.34;72.28
20930;BME280;21895;47.072;15.132;2023-01-28T00:45:06;96761.00;;;1.27;72.78
20930;BME280;21895;47.072;15.132;2023-01-28T00:47:33;96754.00;;;1.14;73.20
20930;BME280;21895;47.072;15.132;2023-01-28T00:50:00;96748.00;;;1.19;73.46
20930;BME280;21895;47.072;15.132;2023-01-28T00:52:27;96749.00;;;1.21;73.71
20930;BME280;21895;47.072;15.132;2023-01-28T00:54:53;96752.00;;;1.25;72.53
20930;BME280;21895;47.072;15.132;2023-01-28T00:57:20;96753.00;;;1.32;71.49
20930;BME280;21895;47.072;15.132;2023-01-28T00:59:46;96755.00;;;1.18;71.19
20930;BME280;21895;47.072;15.132;2023-01-28T01:02:13;96759.00;;;1.10;71.65
20930;BME280;21895;47.072;15.132;2023-01-28T01:04:40;96760.00;;;1.10;71.67
20930;BME280;21895;47.072;15.132;2023-01-28T01:07:06;96762.00;;;1.16;71.09
20930;BME280;21895;47.072;15.132;2023-01-28T01:09:33;96755.00;;;1.05;71.51
20930;BME280;21895;47.072;15.132;2023-01-28T01:12:00;96758.00;;;1.09;71.38
20930;BME280;21895;47.072;15.132;2023-01-28T01:14:26;96756.00;;;1.11;71.77
20930;BME280;21895;47.072;15.132;2023-01-28T01:16:53;96760.00;;;0.99;71.95
20930;BME280;21895;47.072;15.132;2023-01-28T01:19:19;96764.00;;;1.12;71.49
20930;BME280;21895;47.072;15.132;2023-01-28T01:21:46;96765.00;;;1.15;71.44
20930;BME280;21895;47.072;15.132;2023-01-28T01:24:15;96768.00;;;0.97;71.60
20930;BME280;21895;47.072;15.132;2023-01-28T01:26:42;96756.00;;;0.95;71.95
20930;BME280;21895;47.072;15.132;2023-01-28T01:29:08;96763.00;;;0.81;72.36
20930;BME280;21895;47.072;15.132;2023-01-28T01:31:35;96760.00;;;0.68;72.66
20930;BME280;21895;47.072;15.132;2023-01-28T01:34:01;96769.00;;;0.79;72.56
20930;BME280;21895;47.072;15.132;2023-01-28T01:36:28;96765.00;;;0.79;72.46
20930;BME280;21895;47.072;15.132;2023-01-28T01:38:55;96765.00;;;0.90;72.26
20930;BME280;21895;47.072;15.132;2023-01-28T01:41:32;96768.00;;;0.97;71.55
20930;BME280;21895;47.072;15.132;2023-01-28T01:44:02;96763.00;;;0.86;71.23
20930;BME280;21895;47.072;15.132;2023-01-28T01:46:47;96771.00;;;1.00;71.01
20930;BME280;21895;47.072;15.132;2023-01-28T01:49:25;96762.00;;;1.07;70.08
20930;BME280;21895;47.072;15.132;2023-01-28T01:52:02;96764.00;;;0.93;70.08
20930;BME280;21895;47.072;15.132;2023-01-28T01:54:31;96769.00;;;0.96;70.39
20930;BME280;21895;47.072;15.132;2023-01-28T01:57:00;96762.00;;;0.95;69.69
20930;BME280;21895;47.072;15.132;2023-01-28T01:59:31;96772.00;;;0.98;69.44
20930;BME280;21895;47.072;15.132;2023-01-28T02:02:02;96778.00;;;0.84;70.16
20930;BME280;21895;47.072;15.132;2023-01-28T02:04:39;96772.00;;;0.82;70.33
20930;BME280;21895;47.072;15.132;2023-01-28T02:07:10;96767.00;;;0.86;70.42
20930;BME280;21895;47.072;15.132;2023-01-28T02:09:38;96774.00;;;0.89;70.80
20930;BME280;21895;47.072;15.132;2023-01-28T02:12:20;96782.00;;;0.96;70.27
20930;BME280;21895;47.072;15.132;2023-01-28T02:15:14;96784.00;;;1.02;69.60
20930;BME280;21895;47.072;15.132;2023-01-28T02:17:42;96780.00;;;0.86;69.21
20930;BME280;21895;47.072;15.132;2023-01-28T02:20:13;96780.00;;;0.82;70.03
20930;BME280;21895;47.072;15.132;2023-01-28T02:23:32;96785.00;;;0.80;70.80
20930;BME280;21895;47.072;15.132;2023-01-28T02:29:09;96792.00;;;0.87;70.95
20930;BME280;21895;47.072;15.132;2023-01-28T02:31:59;96792.00;;;1.02;69.31
20930;BME280;21895;47.072;15.132;2023-01-28T02:34:44;96790.00;;;1.11;68.85
20930;BME280;21895;47.072;15.132;2023-01-28T02:37:26;96794.00;;;1.00;68.69
20930;BME280;21895;47.072;15.132;2023-01-28T02:40:07;96794.00;;;0.84;69.13
20930;BME280;21895;47.072;15.132;2023-01-28T02:42:38;96789.00;;;0.62;69.91
20930;BME280;21895;47.072;15.132;2023-01-28T02:45:39;96787.00;;;0.70;70.15
20930;BME280;21895;47.072;15.132;2023-01-28T02:48:24;96785.00;;;0.69;69.96
20930;BME280;21895;47.072;15.132;2023-01-28T02:51:09;96779.00;;;0.67;70.09
20930;BME280;21895;47.072;15.132;2023-01-28T02:59:40;96771.00;;;0.64;70.18
20930;BME280;21895;47.072;15.132;2023-01-28T03:07:06;96760.00;;;0.75;70.34
20930;BME280;21895;47.072;15.132;2023-01-28T03:09:36;96762.00;;;0.88;70.23
20930;BME280;21895;47.072;15.132;2023-01-28T03:12:09;96767.00;;;0.83;70.12
20930;BME280;21895;47.072;15.132;2023-01-28T03:15:09;96770.00;;;0.92;70.43
20930;BME280;21895;47.072;15.132;2023-01-28T03:19:16;96763.00;;;1.04;69.80
20930;BME280;21895;47.072;15.132;2023-01-28T03:22:02;96763.00;;;0.92;69.79
20930;BME280;21895;47.072;15.132;2023-01-28T03:24:51;96760.00;;;0.85;69.93
20930;BME280;21895;47.072;15.132;2023-01-28T03:27:59;96767.00;;;0.98;69.43
20930;BME280;21895;47.072;15.132;2023-01-28T03:30:57;96765.00;;;0.92;69.89
20930;BME280;21895;47.072;15.132;2023-01-28T03:33:48;96774.00;;;0.84;69.90
20930;BME280;21895;47.072;15.132;2023-01-28T03:36:35;96776.00;;;0.94;70.02
20930;BME280;21895;47.072;15.132;2023-01-28T03:39:22;96772.00;;;1.00;69.90
20930;BME280;21895;47.072;15.132;2023-01-28T03:42:03;96762.00;;;0.91;70.43
20930;BME280;21895;47.072;15.132;2023-01-28T03:44:31;96753.00;;;0.99;69.91
20930;BME280;21895;47.072;15.132;2023-01-28T03:47:18;96761.00;;;1.09;69.15
20930;BME280;21895;47.072;15.132;2023-01-28T03:49:48;96770.00;;;1.00;69.31
20930;BME280;21895;47.072;15.132;2023-01-28T03:52:24;96777.00;;;0.81;70.48
20930;BME280;21895;47.072;15.132;2023-01-28T03:54:51;96784.00;;;0.92;71.14
20930;BME280;21895;47.072;15.132;2023-01-28T03:57:22;96781.00;;;0.97;71.34
20930;BME280;21895;47.072;15.132;2023-01-28T03:59:49;96780.00;;;1.03;71.66
20930;BME280;21895;47.072;15.132;2023-01-28T04:02:22;96780.00;;;1.04;71.79
20930;BME280;21895;47.072;15.132;2023-01-28T04:04:49;96771.00;;;1.07;71.99
20930;BME280;21895;47.072;15.132;2023-01-28T04:07:15;96769.00;;;1.11;71.71
20930;BME280;21895;47.072;15.132;2023-01-28T04:09:43;96766.00;;;1.10;72.14
20930;BME280;21895;47.072;15.132;2023-01-28T04:12:09;96766.00;;;1.07;71.57
20930;BME280;21895;47.072;15.132;2023-01-28T04:14:36;96777.00;;;1.04;71.46
20930;BME280;21895;47.072;15.132;2023-01-28T04:17:04;96771.00;;;1.04;71.11
20930;BME280;21895;47.072;15.132;2023-01-28T04:19:32;96767.00;;;1.04;71.13
20930;BME280;21895;47.072;15.132;2023-01-28T04:22:06;96770.00;;;1.16;70.34
20930;BME280;21895;47.072;15.132;2023-01-28T04:24:32;96766.00;;;1.14;70.10
20930;BME280;21895;47.072;15.132;2023-01-28T04:26:59;96768.00;;;1.13;70.47
20930;BME280;21895;47.072;15.132;2023-01-28T04:29:25;96763.00;;;1.10;70.73
20930;BME280;21895;47.072;15.132;2023-01-28T04:31:52;96763.00;;;1.10;70.65
20930;BME280;21895;47.072;15.132;2023-01-28T04:34:19;96764.00;;;1.17;70.38
20930;BME280;21895;47.072;15.132;2023-01-28T04:36:45;96770.00;;;1.13;70.49
20930;BME280;21895;47.072;15.132;2023-01-28T04:39:12;96771.00;;;1.17;70.31
20930;BME280;21895;47.072;15.132;2023-01-28T04:41:38;96775.00;;;1.29;69.91
20930;BME280;21895;47.072;15.132;2023-01-28T04:44:05;96780.00;;;1.17;70.31
20930;BME280;21895;47.072;15.132;2023-01-28T04:46:31;96794.00;;;1.11;70.71
20930;BME280;21895;47.072;15.132;2023-01-28T04:48:58;96788.00;;;1.16;71.09
20930;BME280;21895;47.072;15.132;2023-01-28T04:51:24;96793.00;;;1.24;71.51
20930;BME280;21895;47.072;15.132;2023-01-28T04:53:51;96798.00;;;1.24;71.93
20930;BME280;21895;47.072;15.132;2023-01-28T04:56:17;96804.00;;;1.14;72.48
20930;BME280;21895;47.072;15.132;2023-01-28T04:58:44;96801.00;;;1.03;72.60
20930;BME280;21895;47.072;15.132;2023-01-28T05:01:10;96804.00;;;1.11;72.53
20930;BME280;21895;47.072;15.132;2023-01-28T05:03:37;96803.00;;;1.14;72.21
20930;BME280;21895;47.072;15.132;2023-01-28T05:06:03;96812.00;;;1.16;72.29
20930;BME280;21895;47.072;15.132;2023-01-28T05:08:30;96809.00;;;1.11;72.39
20930;BME280;21895;47.072;15.132;2023-01-28T05:10:56;96808.00;;;1.14;72.83
20930;BME280;21895;47.072;15.132;2023-01-28T05:13:23;96807.00;;;1.23;72.44
20930;BME280;21895;47.072;15.132;2023-01-28T05:15:51;96822.00;;;1.23;72.21
20930;BME280;21895;47.072;15.132;2023-01-28T05:18:19;96825.00;;;1.17;72.79
20930;BME280;21895;47.072;15.132;2023-01-28T05:20:46;96828.00;;;1.32;72.58
20930;BME280;21895;47.072;15.132;2023-01-28T05:23:12;96817.00;;;1.26;72.54
20930;BME280;21895;47.072;15.132;2023-01-28T05:25:39;96817.00;;;1.24;72.46
20930;BME280;21895;47.072;15.132;2023-01-28T05:28:05;96824.00;;;1.18;72.67
20930;BME280;21895;47.072;15.132;2023-01-28T05:30:32;96827.00;;;1.22;72.32
20930;BME280;21895;47.072;15.132;2023-01-28T05:32:58;96832.00;;;1.09;72.53
20930;BME280;21895;47.072;15.132;2023-01-28T05:35:25;96836.00;;;1.08;73.26
20930;BME280;21895;47.072;15.132;2023-01-28T05:37:51;96832.00;;;1.24;72.35
20930;BME280;21895;47.072;15.132;2023-01-28T05:40:18;96830.00;;;1.11;73.04
20930;BME280;21895;47.072;15.132;2023-01-28T05:42:44;96840.00;;;1.29;72.61
20930;BME280;21895;47.072;15.132;2023-01-28T05:45:11;96839.00;;;1.31;72.15
20930;BME280;21895;47.072;15.132;2023-01-28T05:47:38;96839.00;;;1.30;72.40
20930;BME280;21895;47.072;15.132;2023-01-28T05:50:07;96847.00;;;1.28;72.38
20930;BME280;21895;47.072;15.132;2023-01-28T05:52:33;96852.00;;;1.23;72.60
20930;BME280;21895;47.072;15.132;2023-01-28T05:55:00;96856.00;;;1.21;72.79
20930;BME280;21895;47.072;15.132;2023-01-28T05:57:26;96855.00;;;1.17;72.84
20930;BME280;21895;47.072;15.132;2023-01-28T05:59:53;96848.00;;;1.22;72.78
20930;BME280;21895;47.072;15.132;2023-01-28T06:02:19;96861.00;;;1.24;72.82
20930;BME280;21895;47.072;15.132;2023-01-28T06:04:46;96860.00;;;1.30;72.85
20930;BME280;21895;47.072;15.132;2023-01-28T06:07:13;96868.00;;;1.38;72.52
20930;BME280;21895;47.072;15.132;2023-01-28T06:09:40;96879.00;;;1.31;72.82
20930;BME280;21895;47.072;15.132;2023-01-28T06:12:07;96876.00;;;1.37;72.64
20930;BME280;21895;47.072;15.132;2023-01-28T06:14:33;96878.00;;;1.28;73.00
20930;BME280;21895;47.072;15.132;2023-01-28T06:17:00;96881.00;;;1.25;73.02
20930;BME280;21895;47.072;15.132;2023-01-28T06:19:27;96876.00;;;1.31;72.81
20930;BME280;21895;47.072;15.132;2023-01-28T06:21:53;96875.00;;;1.26;72.91
20930;BME280;21895;47.072;15.132;2023-01-28T06:24:20;96879.00;;;1.34;72.78
20930;BME280;21895;47.072;15.132;2023-01-28T06:26:46;96885.00;;;1.32;72.84
20930;BME280;21895;47.072;15.132;2023-01-28T06:29:13;96890.00;;;1.30;72.59
20930;BME280;21895;47.072;15.132;2023-01-28T06:31:39;96895.00;;;1.35;72.63
20930;BME280;21895;47.072;15.132;2023-01-28T06:34:07;96896.00;;;1.26;72.53
20930;BME280;21895;47.072;15.132;2023-01-28T06:36:35;96902.00;;;1.20;72.87
20930;BME280;21895;47.072;15.132;2023-01-28T06:39:03;96901.00;;;1.39;73.06
20930;BME280;21895;47.072;15.132;2023-01-28T06:41:30;96908.00;;;1.47;72.85
20930;BME280;21895;47.072;15.132;2023-01-28T06:43:56;96905.00;;;1.41;72.74
20930;BME280;21895;47.072;15.132;2023-01-28T06:46:23;96906.00;;;1.47;72.70
20930;BME280;21895;47.072;15.132;2023-01-28T06:48:50;96909.00;;;1.45;73.14
20930;BME280;21895;47.072;15.132;2023-01-28T06:51:16;96915.00;;;1.48;73.11
20930;BME280;21895;47.072;15.132;2023-01-28T06:53:43;96918.00;;;1.53;72.85
20930;BME280;21895;47.072;15.132;2023-01-28T06:56:11;96920.00;;;1.51;72.92
20930;BME280;21895;47.072;15.132;2023-01-28T06:58:38;96919.00;;;1.60;73.05
20930;BME280;21895;47.072;15.132;2023-01-28T07:01:04;96931.00;;;1.51;73.01
20930;BME280;21895;47.072;15.132;2023-01-28T07:03:31;96936.00;;;1.54;73.06
20930;BME280;21895;47.072;15.132;2023-01-28T07:05:57;96933.00;;;1.52;73.16
20930;BME280;21895;47.072;15.132;2023-01-28T07:08:24;96934.00;;;1.71;72.75
20930;BME280;21895;47.072;15.132;2023-01-28T07:10:50;96946.00;;;1.68;72.54
20930;BME280;21895;47.072;15.132;2023-01-28T07:13:17;96940.00;;;1.69;72.56
20930;BME280;21895;47.072;15.132;2023-01-28T07:15:43;96935.00;;;1.68;72.85
20930;BME280;21895;47.072;15.132;2023-01-28T07:18:10;96945.00;;;1.69;72.85
20930;BME280;21895;47.072;15.132;2023-01-28T07:20:36;96943.00;;;1.65;72.93
20930;BME280;21895;47.072;15.132;2023-01-28T07:23:03;96942.00;;;1.64;72.90
20930;BME280;21895;47.072;15.132;2023-01-28T07:25:29;96940.00;;;1.69;72.85
20930;BME280;21895;47.072;15.132;2023-01-28T07:27:56;96949.00;;;1.80;72.78
20930;BME280;21895;47.072;15.132;2023-01-28T07:30:23;96947.00;;;1.90;72.42
20930;BME280;21895;47.072;15.132;2023-01-28T07:32:58;96941.00;;;1.93;72.25
20930;BME280;21895;47.072;15.132;2023-01-28T07:35:25;96952.00;;;2.11;71.80
20930;BME280;21895;47.072;15.132;2023-01-28T07:37:59;96952.00;;;2.13;71.64
20930;BME280;21895;47.072;15.132;2023-01-28T07:40:27;96947.00;;;2.13;71.46
20930;BME280;21895;47.072;15.132;2023-01-28T07:42:54;96950.00;;;2.18;71.06
20930;BME280;21895;47.072;15.132;2023-01-28T07:45:23;96949.00;;;2.21;70.72
20930;BME280;21895;47.072;15.132;2023-01-28T07:47:59;96961.00;;;2.29;70.62
20930;BME280;21895;47.072;15.132;2023-01-28T07:50:27;96956.00;;;2.35;69.98
20930;BME280;21895;47.072;15.132;2023-01-28T07:52:57;96955.00;;;2.44;69.42
20930;BME280;21895;47.072;15.132;2023-01-28T07:55:25;96956.00;;;2.37;70.02
20930;BME280;21895;47.072;15.132;2023-01-28T07:57:54;96958.00;;;2.45;70.20
20930;BME280;21895;47.072;15.132;2023-01-28T08:00:23;96965.00;;;2.52;69.88
20930;BME280;21895;47.072;15.132;2023-01-28T08:02:55;96962.00;;;2.57;69.21
20930;BME280;21895;47.072;15.132;2023-01-28T08:05:22;96961.00;;;2.71;68.49
20930;BME280;21895;47.072;15.132;2023-01-28T08:07:48;96964.00;;;2.80;68.46
20930;BME280;21895;47.072;15.132;2023-01-28T08:10:16;96966.00;;;2.90;68.28
20930;BME280;21895;47.072;15.132;2023-01-28T08:12:55;96960.00;;;3.01;67.72
20930;BME280;21895;47.072;15.132;2023-01-28T08:15:22;96969.00;;;3.20;66.74
20930;BME280;21895;47.072;15.132;2023-01-28T08:17:48;96957.00;;;3.31;65.97
20930;BME280;21895;47.072;15.132;2023-01-28T08:20:15;96971.00;;;3.36;65.52
20930;BME280;21895;47.072;15.132;2023-01-28T08:22:43;96965.00;;;3.62;64.98
20930;BME280;21895;47.072;15.132;2023-01-28T08:25:09;96965.00;;;3.77;63.71
20930;BME280;21895;47.072;15.132;2023-01-28T08:27:36;96975.00;;;3.75;63.22
20930;BME280;21895;47.072;15.132;2023-01-28T08:30:03;96972.00;;;3.83;63.95
20930;BME280;21895;47.072;15.132;2023-01-28T08:32:30;96974.00;;;4.01;63.22
20930;BME280;21895;47.072;15.132;2023-01-28T08:34:56;96969.00;;;3.94;63.68
20930;BME280;21895;47.072;15.132;2023-01-28T08:37:23;96982.00;;;4.05;63.54
20930;BME280;21895;47.072;15.132;2023-01-28T08:39:49;96976.00;;;3.95;63.15
20930;BME280;21895;47.072;15.132;2023-01-28T08:42:16;96979.00;;;3.82;63.48
20930;BME280;21895;47.072;15.132;2023-01-28T08:44:42;96981.00;;;3.75;63.73
20930;BME280;21895;47.072;15.132;2023-01-28T08:47:09;96985.00;;;3.76;64.28
20930;BME280;21895;47.072;15.132;2023-01-28T08:49:35;96987.00;;;3.73;64.11
20930;BME280;21895;47.072;15.132;2023-01-28T08:52:02;96990.00;;;3.55;64.61
20930;BME280;21895;47.072;15.132;2023-01-28T08:54:28;96996.00;;;3.55;64.75
20930;BME280;21895;47.072;15.132;2023-01-28T08:56:55;96997.00;;;3.57;64.72
20930;BME280;21895;47.072;15.132;2023-01-28T08:59:21;97006.00;;;3.56;64.61
20930;BME280;21895;47.072;15.132;2023-01-28T09:01:48;97007.00;;;3.39;65.12
20930;BME280;21895;47.072;15.132;2023-01-28T09:04:14;97004.00;;;3.49;64.93
20930;BME280;21895;47.072;15.132;2023-01-28T09:06:41;97014.00;;;3.38;65.32
20930;BME280;21895;47.072;15.132;2023-01-28T09:09:07;97016.00;;;3.41;65.22
20930;BME280;21895;47.072;15.132;2023-01-28T09:11:34;97021.00;;;3.51;63.80
20930;BME280;21895;47.072;15.132;2023-01-28T09:14:00;97012.00;;;3.39;63.95
20930;BME280;21895;47.072;15.132;2023-01-28T09:16:27;97027.00;;;3.06;64.85
20930;BME280;21895;47.072;15.132;2023-01-28T09:18:53;97022.00;;;3.08;64.92
20930;BME280;21895;47.072;15.132;2023-01-28T09:21:20;97023.00;;;3.13;65.20
20930;BME280;21895;47.072;15.132;2023-01-28T09:23:47;97026.00;;;3.35;64.40
20930;BME280;21895;47.072;15.132;2023-01-28T09:26:13;97028.00;;;3.39;64.20
20930;BME280;21895;47.072;15.132;2023-01-28T09:28:40;97034.00;;;3.42;64.17
20930;BME280;21895;47.072;15.132;2023-01-28T09:31:10;97029.00;;;3.59;63.29
20930;BME280;21895;47.072;15.132;2023-01-28T09:33:39;97024.00;;;3.57;63.78
20930;BME280;21895;47.072;15.132;2023-01-28T09:36:09;97031.00;;;3.64;63.53
20930;BME280;21895;47.072;15.132;2023-01-28T09:38:36;97029.00;;;3.71;63.52
20930;BME280;21895;47.072;15.132;2023-01-28T09:45:42;97033.00;;;3.86;62.98
20930;BME280;21895;47.072;15.132;2023-01-28T09:48:29;97034.00;;;4.21;62.30
20930;BME280;21895;47.072;15.132;2023-01-28T09:50:59;97034.00;;;4.17;62.02
20930;BME280;21895;47.072;15.132;2023-01-28T09:53:43;97041.00;;;4.14;62.61
20930;BME280;21895;47.072;15.132;2023-01-28T09:56:21;97038.00;;;4.19;62.73
20930;BME280;21895;47.072;15.132;2023-01-28T09:58:51;97035.00;;;4.22;62.51
20930;BME280;21895;47.072;15.132;2023-01-28T10:01:41;97041.00;;;4.45;62.21
20930;BME280;21895;47.072;15.132;2023-01-28T10:10:54;97038.00;;;4.44;61.46
20930;BME280;21895;47.072;15.132;2023-01-28T10:13:37;97031.00;;;4.30;62.20
20930;BME280;21895;47.072;15.132;2023-01-28T10:19:11;97034.00;;;4.23;63.09
20930;BME280;21895;47.072;15.132;2023-01-28T10:21:52;97034.00;;;4.34;62.95
20930;BME280;21895;47.072;15.132;2023-01-28T10:24:35;97040.00;;;4.25;63.19
20930;BME280;21895;47.072;15.132;2023-01-28T10:27:22;97027.00;;;4.37;63.09
20930;BME280;21895;47.072;15.132;2023-01-28T10:29:51;97029.00;;;4.23;63.07
20930;BME280;21895;47.072;15.132;2023-01-28T10:32:33;97030.00;;;4.13;63.73
20930;BME280;21895;47.072;15.132;2023-01-28T10:35:02;97036.00;;;4.23;62.91
20930;BME280;21895;47.072;15.132;2023-01-28T10:37:34;97030.00;;;4.21;62.87
20930;BME280;21895;47.072;15.132;2023-01-28T10:40:03;97034.00;;;4.05;63.02
20930;BME280;21895;47.072;15.132;2023-01-28T10:42:35;97039.00;;;3.95;63.98
20930;BME280;21895;47.072;15.132;2023-01-28T10:45:23;97035.00;;;4.07;63.52
20930;BME280;21895;47.072;15.132;2023-01-28T10:48:28;97030.00;;;3.91;64.45
20930;BME280;21895;47.072;15.132;2023-01-28T10:50:58;97034.00;;;3.90;64.40
20930;BME280;21895;47.072;15.132;2023-01-28T10:53:42;97027.00;;;3.88;64.72
20930;BME280;21895;47.072;15.132;2023-01-28T10:56:24;97036.00;;;4.00;64.05
20930;BME280;21895;47.072;15.132;2023-01-28T10:59:04;97042.00;;;4.20;63.70
20930;BME280;21895;47.072;15.132;2023-01-28T11:01:55;97037.00;;;4.23;63.00
20930;BME280;21895;47.072;15.132;2023-01-28T11:04:29;97035.00;;;4.29;63.52
20930;BME280;21895;47.072;15.132;2023-01-28T11:07:06;97035.00;;;4.35;63.44
20930;BME280;21895;47.072;15.132;2023-01-28T11:09:50;97025.00;;;4.35;63.30
20930;BME280;21895;47.072;15.132;2023-01-28T11:12:29;97029.00;;;4.38;63.33
20930;BME280;21895;47.072;15.132;2023-01-28T11:15:05;97024.00;;;4.55;62.32
20930;BME280;21895;47.072;15.132;2023-01-28T11:17:35;97017.00;;;4.63;61.36
20930;BME280;21895;47.072;15.132;2023-01-28T11:20:19;97025.00;;;4.48;62.65
20930;BME280;21895;47.072;15.132;2023-01-28T11:22:48;97019.00;;;4.19;63.12
20930;BME280;21895;47.072;15.132;2023-01-28T11:25:36;97026.00;;;4.12;63.15
20930;BME280;21895;47.072;15.132;2023-01-28T11:28:17;97024.00;;;4.28;63.47
20930;BME280;21895;47.072;15.132;2023-01-28T11:30:51;97020.00;;;4.50;63.47
20930;BME280;21895;47.072;15.132;2023-01-28T11:33:35;97025.00;;;4.58;63.37
20930;BME280;21895;47.072;15.132;2023-01-28T11:36:28;97022.00;;;4.70;63.33
20930;BME280;21895;47.072;15.132;2023-01-28T11:39:01;97009.00;;;4.65;62.20
20930;BME280;21895;47.072;15.132;2023-01-28T11:41:34;97015.00;;;4.72;62.50
20930;BME280;21895;47.072;15.132;2023-01-28T11:44:18;97017.00;;;4.47;62.73
20930;BME280;21895;47.072;15.132;2023-01-28T11:47:39;97014.00;;;4.48;63.26
20930;BME280;21895;47.072;15.132;2023-01-28T11:51:00;97011.00;;;4.40;62.81
20930;BME280;21895;47.072;15.132;2023-01-28T11:54:25;97010.00;;;4.57;62.99
20930;BME280;21895;47.072;15.132;2023-01-28T12:09:10;96997.00;;;4.40;63.83
20930;BME280;21895;47.072;15.132;2023-01-28T12:15:57;96988.00;;;4.29;63.72
20930;BME280;21895;47.072;15.132;2023-01-28T12:20:04;96993.00;;;4.39;64.16
20930;BME280;21895;47.072;15.132;2023-01-28T12:23:02;96986.00;;;4.25;63.77
20930;BME280;21895;47.072;15.132;2023-01-28T12:31:13;96986.00;;;4.36;64.28
20930;BME280;21895;47.072;15.132;2023-01-28T12:41:03;96975.00;;;4.29;64.38
20930;BME280;21895;47.072;15.132;2023-01-28T12:44:31;96983.00;;;4.22;64.15
20930;BME280;21895;47.072;15.132;2023-01-28T12:47:11;96980.00;;;4.19;64.96
20930;BME280;21895;47.072;15.132;2023-01-28T12:49:49;96987.00;;;4.27;64.82
20930;BME280;21895;47.072;15.132;2023-01-28T12:52:35;96987.00;;;4.20;65.46
20930;BME280;21895;47.072;15.132;2023-01-28T12:55:41;96988.00;;;4.18;64.84
20930;BME280;21895;47.072;15.132;2023-01-28T12:58:20;96984.00;;;4.14;64.43
20930;BME280;21895;47.072;15.132;2023-01-28T13:00:53;96989.00;;;4.13;64.24
20930;BME280;21895;47.072;15.132;2023-01-28T13:03:50;96992.00;;;4.05;64.74
20930;BME280;21895;47.072;15.132;2023-01-28T13:06:32;96986.00;;;4.00;65.23
20930;BME280;21895;47.072;15.132;2023-01-28T13:09:20;96991.00;;;3.98;66.65
20930;BME280;21895;47.072;15.132;2023-01-28T13:11:55;96988.00;;;4.19;66.22
20930;BME280;21895;47.072;15.132;2023-01-28T13:14:29;96986.00;;;4.12;65.75
20930;BME280;21895;47.072;15.132;2023-01-28T13:17:11;96989.00;;;4.08;66.25
20930;BME280;21895;47.072;15.132;2023-01-28T13:19:41;96981.00;;;4.16;66.05
20930;BME280;21895;47.072;15.132;2023-01-28T13:22:31;96990.00;;;4.17;66.31
20930;BME280;21895;47.072;15.132;2023-01-28T13:25:19;96984.00;;;4.17;65.65
20930;BME280;21895;47.072;15.132;2023-01-28T13:28:21;96988.00;;;4.11;65.38
20930;BME280;21895;47.072;15.132;2023-01-28T13:30:49;96995.00;;;3.97;65.91
20930;BME280;21895;47.072;15.132;2023-01-28T13:33:38;96997.00;;;3.87;66.11
20930;BME280;21895;47.072;15.132;2023-01-28T13:36:47;97007.00;;;3.95;66.96
20930;BME280;21895;47.072;15.132;2023-01-28T13:39:24;97001.00;;;4.16;67.23
20930;BME280;21895;47.072;15.132;2023-01-28T13:42:41;97006.00;;;4.10;66.48
20930;BME280;21895;47.072;15.132;2023-01-28T13:45:21;97008.00;;;4.15;66.00
20930;BME280;21895;47.072;15.132;2023-01-28T13:47:59;97011.00;;;4.15;66.33
20930;BME280;21895;47.072;15.132;2023-01-28T13:50:39;97016.00;;;4.25;65.24
20930;BME280;21895;47.072;15.132;2023-01-28T13:53:43;97017.00;;;4.11;65.86
20930;BME280;21895;47.072;15.132;2023-01-28T13:56:25;97022.00;;;4.13;66.04
20930;BME280;21895;47.072;15.132;2023-01-28T13:59:45;97023.00;;;4.21;66.18
20930;BME280;21895;47.072;15.132;2023-01-28T14:04:35;97024.00;;;4.25;66.58
20930;BME280;21895;47.072;15.132;2023-01-28T14:12:41;97032.00;;;4.07;66.11
20930;BME280;21895;47.072;15.132;2023-01-28T14:17:55;97030.00;;;4.22;66.21
20930;BME280;21895;47.072;15.132;2023-01-28T14:20:44;97039.00;;;4.30;66.65
20930;BME280;21895;47.072;15.132;2023-01-28T14:23:20;97043.00;;;4.16;66.95
20930;BME280;21895;47.072;15.132;2023-01-28T14:26:24;97037.00;;;4.15;67.30
20930;BME280;21895;47.072;15.132;2023-01-28T14:33:26;97040.00;;;4.12;66.89
20930;BME280;21895;47.072;15.132;2023-01-28T14:35:52;97057.00;;;3.94;67.05
20930;BME280;21895;47.072;15.132;2023-01-28T14:38:21;97057.00;;;3.87;67.36
20930;BME280;21895;47.072;15.132;2023-01-28T14:40:53;97046.00;;;3.90;67.82
20930;BME280;21895;47.072;15.132;2023-01-28T14:43:26;97057.00;;;3.88;67.75
20930;BME280;21895;47.072;15.132;2023-01-28T14:46:33;97059.00;;;3.81;67.84
20930;BME280;21895;47.072;15.132;2023-01-28T14:56:01;97068.00;;;3.67;68.29